PWSweather.com
Personal Weather Stations
Station Observations
SHAHALMS1
Eftra, Falkenberg, HA

EftraFalkenberg, HA

Lat: 56.85, Lon: 12.65

Elevation: 140

Station Type:

http://hem.passagen.se/risarp101

High Low Average
Temperature 69.8°F21.0°C 60.1°F15.6°C 63.4°F17.4°C
Dew Point 63.0°F17.2°C 55.8°F13.2°C 60.0°F15.6°C
Winds 13.4 mph 21.6 kmh 2.3 mph 3.7 kmh 7.0 mph WSW11.3 kmh WSW
Wind Gusts 35.4 mph57.0 kmh 3.6 mph5.8 kmh 17.0 mph27.4 kmh
Humidity 100% 75% 89%
Pressure 29.53 in1000.0 mb 29.47 in998.0 mb -
Precipitation 0.27 in6.9 mm - -
Hour Temp Dew Point Humidity Winds Wind Gusts Pressure Precip Precip Rate Daily Precip Total
12:00 AM 60.4°F15.8°C 60.4°F15.8°C 100% 2.9 mph WSW4.7 kmh WSW 9.7 mph15.6 kmh 29.53 in1000.0 mb 0.00 in0.0 mm 0.00 in0.0 mm 0.00 in0.0 mm
12:15 AM 60.8°F16.0°C 60.8°F16.0°C 100% 6.7 mph SW10.8 kmh SW 16.8 mph27.0 kmh 29.50 in999.0 mb 0.00 in0.0 mm 0.00 in0.0 mm 0.00 in0.0 mm
12:31 AM 60.6°F15.9°C 60.6°F15.9°C 100% 6.0 mph SW9.7 kmh SW 14.3 mph23.0 kmh 29.50 in999.0 mb 0.00 in0.0 mm 0.00 in0.0 mm 0.00 in0.0 mm
12:45 AM 60.8°F16.0°C 60.8°F16.0°C 100% 6.1 mph WSW9.8 kmh WSW 21.1 mph34.0 kmh 29.50 in999.0 mb 0.00 in0.0 mm 0.00 in0.0 mm 0.00 in0.0 mm
01:00 AM 60.3°F15.7°C 60.3°F15.7°C 100% 7.0 mph W11.3 kmh W 17.2 mph27.7 kmh 29.47 in998.0 mb 0.00 in0.0 mm 0.00 in0.0 mm 0.00 in0.0 mm
01:15 AM 60.3°F15.7°C 59.4°F15.2°C 97% 8.4 mph SW13.5 kmh SW 16.5 mph26.6 kmh 29.50 in999.0 mb 0.00 in0.0 mm 0.00 in0.0 mm 0.00 in0.0 mm
01:30 AM 60.3°F15.7°C 59.4°F15.2°C 97% 8.2 mph S13.2 kmh S 16.8 mph27.0 kmh 29.50 in999.0 mb 0.00 in0.0 mm 0.00 in0.0 mm 0.00 in0.0 mm
01:45 AM 60.1°F15.6°C 59.2°F15.1°C 97% 6.9 mph WSW11.1 kmh WSW 15.0 mph24.1 kmh 29.50 in999.0 mb 0.00 in0.0 mm 0.00 in0.0 mm 0.00 in0.0 mm
02:00 AM 60.1°F15.6°C 59.2°F15.1°C 97% 4.5 mph W7.2 kmh W 7.9 mph12.7 kmh 29.47 in998.0 mb 0.00 in0.0 mm 0.00 in0.0 mm 0.00 in0.0 mm
02:15 AM 60.1°F15.6°C 59.2°F15.1°C 97% 10.0 mph SW16.1 kmh SW 16.8 mph27.0 kmh 29.47 in998.0 mb 0.00 in0.0 mm 0.00 in0.0 mm 0.00 in0.0 mm
02:30 AM 60.4°F15.8°C 59.6°F15.3°C 97% 5.0 mph W8.0 kmh W 11.1 mph17.9 kmh 29.47 in998.0 mb 0.00 in0.0 mm 0.00 in0.0 mm 0.00 in0.0 mm
02:45 AM 60.6°F15.9°C 59.8°F15.4°C 97% 3.6 mph S5.8 kmh S 8.9 mph14.3 kmh 29.50 in999.0 mb 0.00 in0.0 mm 0.00 in0.0 mm 0.00 in0.0 mm
03:00 AM 60.6°F15.9°C 59.8°F15.4°C 97% 2.9 mph S4.7 kmh S 3.6 mph5.8 kmh 29.50 in999.0 mb 0.00 in0.0 mm 0.00 in0.0 mm 0.00 in0.0 mm
03:15 AM 60.8°F16.0°C 60.8°F16.0°C 100% 4.7 mph S7.6 kmh S 6.8 mph10.9 kmh 29.50 in999.0 mb 0.00 in0.0 mm 0.00 in0.0 mm 0.00 in0.0 mm
03:30 AM 60.8°F16.0°C 60.8°F16.0°C 100% 8.5 mph NW13.7 kmh NW 21.1 mph34.0 kmh 29.50 in999.0 mb 0.00 in0.0 mm 0.00 in0.0 mm 0.00 in0.0 mm
03:45 AM 61.0°F16.1°C 61.0°F16.1°C 100% 10.2 mph S16.4 kmh S 15.7 mph25.3 kmh 29.50 in999.0 mb 0.00 in0.0 mm 0.00 in0.0 mm 0.00 in0.0 mm
04:00 AM 60.8°F16.0°C 60.8°F16.0°C 100% 8.8 mph WSW14.2 kmh WSW 15.4 mph24.8 kmh 29.50 in999.0 mb 0.00 in0.0 mm 0.00 in0.0 mm 0.00 in0.0 mm
04:15 AM 60.8°F16.0°C 60.8°F16.0°C 100% 6.3 mph WSW10.1 kmh WSW 12.5 mph20.1 kmh 29.50 in999.0 mb 0.00 in0.0 mm 0.00 in0.0 mm 0.00 in0.0 mm
04:30 AM 61.0°F16.1°C 61.0°F16.1°C 100% 10.2 mph WSW16.4 kmh WSW 20.4 mph32.8 kmh 29.50 in999.0 mb 0.00 in0.0 mm 0.00 in0.0 mm 0.00 in0.0 mm
04:45 AM 60.8°F16.0°C 59.9°F15.5°C 97% 7.6 mph S12.2 kmh S 9.3 mph15.0 kmh 29.50 in999.0 mb 0.00 in0.0 mm 0.00 in0.0 mm 0.00 in0.0 mm
05:00 AM 60.6°F15.9°C 59.8°F15.4°C 97% 7.6 mph S12.2 kmh S 9.3 mph15.0 kmh 29.50 in999.0 mb 0.00 in0.0 mm 0.00 in0.0 mm 0.00 in0.0 mm
05:15 AM 60.6°F15.9°C 59.8°F15.4°C 97% 9.2 mph S14.8 kmh S 12.9 mph20.8 kmh 29.50 in999.0 mb 0.00 in0.0 mm 0.00 in0.0 mm 0.00 in0.0 mm
05:30 AM 61.0°F16.1°C 60.1°F15.6°C 97% 9.7 mph W15.6 kmh W 16.1 mph25.9 kmh 29.50 in999.0 mb 0.00 in0.0 mm 0.00 in0.0 mm 0.00 in0.0 mm
05:45 AM 61.7°F16.5°C 60.8°F16.0°C 97% 10.5 mph SW16.9 kmh SW 19.0 mph30.6 kmh 29.50 in999.0 mb 0.00 in0.0 mm 0.00 in0.0 mm 0.00 in0.0 mm
06:00 AM 62.1°F16.7°C 61.2°F16.2°C 97% 5.5 mph WNW8.9 kmh WNW 7.9 mph12.7 kmh 29.50 in999.0 mb 0.00 in0.0 mm 0.00 in0.0 mm 0.00 in0.0 mm
06:15 AM 62.6°F17.0°C 61.4°F16.3°C 96% 6.5 mph SW10.5 kmh SW 12.9 mph20.8 kmh 29.50 in999.0 mb 0.00 in0.0 mm 0.00 in0.0 mm 0.00 in0.0 mm
06:30 AM 63.3°F17.4°C 62.2°F16.8°C 96% 8.7 mph NW14.0 kmh NW 12.2 mph19.6 kmh 29.50 in999.0 mb 0.00 in0.0 mm 0.00 in0.0 mm 0.00 in0.0 mm
06:45 AM 63.7°F17.6°C 62.2°F16.8°C 95% 9.2 mph SSW14.8 kmh SSW 20.0 mph32.2 kmh 29.50 in999.0 mb 0.00 in0.0 mm 0.00 in0.0 mm 0.00 in0.0 mm
07:00 AM 62.8°F17.1°C 60.7°F15.9°C 93% 4.1 mph W6.6 kmh W 12.9 mph20.8 kmh 29.50 in999.0 mb 0.04 in1.0 mm 0.05 in1.3 mm 0.04 in1.0 mm
07:15 AM 62.8°F17.1°C 61.0°F16.1°C 94% 9.7 mph WSW15.6 kmh WSW 21.1 mph34.0 kmh 29.50 in999.0 mb 0.04 in1.0 mm 0.00 in0.0 mm 0.04 in1.0 mm
07:30 AM 63.3°F17.4°C 61.3°F16.3°C 93% 7.8 mph NW12.6 kmh NW 20.8 mph33.5 kmh 29.50 in999.0 mb 0.04 in1.0 mm 0.00 in0.0 mm 0.04 in1.0 mm
07:45 AM 64.4°F18.0°C 62.0°F16.7°C 92% 8.4 mph W13.5 kmh W 20.8 mph33.5 kmh 29.50 in999.0 mb 0.00 in0.0 mm 0.00 in0.0 mm 0.04 in1.0 mm
08:00 AM 64.8°F18.2°C 61.8°F16.6°C 90% 7.8 mph WSW12.6 kmh WSW 24.3 mph39.1 kmh 29.50 in999.0 mb 0.00 in0.0 mm 0.00 in0.0 mm 0.04 in1.0 mm
08:15 AM 65.8°F18.8°C 62.5°F16.9°C 89% 8.4 mph SW13.5 kmh SW 20.0 mph32.2 kmh 29.50 in999.0 mb 0.00 in0.0 mm 0.00 in0.0 mm 0.04 in1.0 mm
08:31 AM 66.2°F19.0°C 61.9°F16.6°C 86% 9.7 mph W15.6 kmh W 23.6 mph38.0 kmh 29.50 in999.0 mb 0.00 in0.0 mm 0.00 in0.0 mm 0.04 in1.0 mm
08:45 AM 67.3°F19.6°C 62.6°F17.0°C 85% 8.5 mph SW13.7 kmh SW 22.5 mph36.2 kmh 29.50 in999.0 mb 0.00 in0.0 mm 0.00 in0.0 mm 0.04 in1.0 mm
09:00 AM 67.5°F19.7°C 62.1°F16.7°C 83% 8.2 mph W13.2 kmh W 26.5 mph42.6 kmh 29.50 in999.0 mb 0.00 in0.0 mm 0.00 in0.0 mm 0.04 in1.0 mm
09:15 AM 68.0°F20.0°C 62.3°F16.8°C 82% 8.2 mph W13.2 kmh W 16.5 mph26.6 kmh 29.50 in999.0 mb 0.00 in0.0 mm 0.00 in0.0 mm 0.04 in1.0 mm
09:30 AM 68.2°F20.1°C 61.8°F16.6°C 80% 6.8 mph WSW10.9 kmh WSW 14.7 mph23.7 kmh 29.50 in999.0 mb 0.00 in0.0 mm 0.00 in0.0 mm 0.04 in1.0 mm
09:45 AM 68.4°F20.2°C 61.9°F16.6°C 80% 8.4 mph W13.5 kmh W 17.2 mph27.7 kmh 29.50 in999.0 mb 0.00 in0.0 mm 0.00 in0.0 mm 0.04 in1.0 mm
10:00 AM 69.1°F20.6°C 62.6°F17.0°C 80% 8.9 mph SW14.3 kmh SW 20.4 mph32.8 kmh 29.50 in999.0 mb 0.00 in0.0 mm 0.00 in0.0 mm 0.04 in1.0 mm
10:15 AM 69.3°F20.7°C 62.5°F16.9°C 79% 7.3 mph SW11.7 kmh SW 17.5 mph28.2 kmh 29.50 in999.0 mb 0.00 in0.0 mm 0.00 in0.0 mm 0.04 in1.0 mm
10:30 AM 68.5°F20.3°C 61.0°F16.1°C 77% 9.5 mph SW15.3 kmh SW 30.8 mph49.6 kmh 29.50 in999.0 mb 0.00 in0.0 mm 0.00 in0.0 mm 0.04 in1.0 mm
10:45 AM 68.5°F20.3°C 61.4°F16.3°C 78% 9.2 mph SW14.8 kmh SW 22.9 mph36.9 kmh 29.50 in999.0 mb 0.00 in0.0 mm 0.00 in0.0 mm 0.04 in1.0 mm
11:00 AM 68.2°F20.1°C 61.1°F16.2°C 78% 8.7 mph W14.0 kmh W 19.3 mph31.1 kmh 29.50 in999.0 mb 0.00 in0.0 mm 0.00 in0.0 mm 0.04 in1.0 mm
11:15 AM 68.0°F20.0°C 61.2°F16.2°C 79% 8.8 mph SW14.2 kmh SW 17.2 mph27.7 kmh 29.50 in999.0 mb 0.00 in0.0 mm 0.00 in0.0 mm 0.04 in1.0 mm
11:30 AM 68.2°F20.1°C 60.7°F15.9°C 77% 10.3 mph SW16.6 kmh SW 20.4 mph32.8 kmh 29.50 in999.0 mb 0.00 in0.0 mm 0.00 in0.0 mm 0.04 in1.0 mm
11:45 AM 68.7°F20.4°C 63.0°F17.2°C 82% 9.7 mph WSW15.6 kmh WSW 24.3 mph39.1 kmh 29.50 in999.0 mb 0.00 in0.0 mm 0.00 in0.0 mm 0.04 in1.0 mm
12:00 PM 68.4°F20.2°C 62.3°F16.8°C 81% 8.9 mph SW14.3 kmh SW 26.1 mph42.0 kmh 29.50 in999.0 mb 0.00 in0.0 mm 0.00 in0.0 mm 0.04 in1.0 mm
12:15 PM 68.9°F20.5°C 62.1°F16.7°C 79% 8.5 mph SSW13.7 kmh SSW 27.2 mph43.8 kmh 29.50 in999.0 mb 0.00 in0.0 mm 0.00 in0.0 mm 0.04 in1.0 mm
12:30 PM 68.7°F20.4°C 61.6°F16.4°C 78% 10.4 mph SSW16.7 kmh SSW 23.6 mph38.0 kmh 29.50 in999.0 mb 0.00 in0.0 mm 0.00 in0.0 mm 0.04 in1.0 mm
12:45 PM 69.8°F21.0°C 61.5°F16.4°C 75% 13.4 mph SSW21.6 kmh SSW 35.4 mph57.0 kmh 29.50 in999.0 mb 0.00 in0.0 mm 0.00 in0.0 mm 0.04 in1.0 mm
01:00 PM 68.9°F20.5°C 60.6°F15.9°C 75% 9.2 mph SSW14.8 kmh SSW 21.1 mph34.0 kmh 29.50 in999.0 mb 0.00 in0.0 mm 0.00 in0.0 mm 0.04 in1.0 mm
01:15 PM 66.6°F19.2°C 59.8°F15.4°C 79% 9.2 mph WSW14.8 kmh WSW 20.4 mph32.8 kmh 29.50 in999.0 mb 0.00 in0.0 mm 0.00 in0.0 mm 0.04 in1.0 mm
01:30 PM 66.6°F19.2°C 61.9°F16.6°C 85% 9.3 mph SW15.0 kmh SW 23.3 mph37.5 kmh 29.50 in999.0 mb 0.00 in0.0 mm 0.00 in0.0 mm 0.04 in1.0 mm
01:45 PM 66.2°F19.0°C 61.6°F16.4°C 85% 7.8 mph SW12.6 kmh SW 20.0 mph32.2 kmh 29.47 in998.0 mb 0.00 in0.0 mm 0.00 in0.0 mm 0.04 in1.0 mm
02:00 PM 64.4°F18.0°C 58.1°F14.5°C 80% 8.4 mph W13.5 kmh W 24.3 mph39.1 kmh 29.53 in1000.0 mb 0.00 in0.0 mm 0.00 in0.0 mm 0.04 in1.0 mm
02:15 PM 61.7°F16.5°C 55.8°F13.2°C 81% 6.8 mph WNW10.9 kmh WNW 17.2 mph27.7 kmh 29.50 in999.0 mb 0.00 in0.0 mm 0.00 in0.0 mm 0.04 in1.0 mm
02:30 PM 60.8°F16.0°C 55.9°F13.3°C 84% 6.0 mph WNW9.7 kmh WNW 8.9 mph14.3 kmh 29.50 in999.0 mb 0.06 in1.5 mm 0.24 in6.1 mm 0.10 in2.5 mm
02:45 PM 61.0°F16.1°C 57.1°F13.9°C 87% 2.3 mph WSW3.7 kmh WSW 5.7 mph9.2 kmh 29.50 in999.0 mb 0.06 in1.5 mm 0.00 in0.0 mm 0.10 in2.5 mm
03:00 PM 62.8°F17.1°C 59.8°F15.4°C 90% 2.5 mph W4.0 kmh W 7.9 mph12.7 kmh 29.50 in999.0 mb 0.06 in1.5 mm 0.00 in0.0 mm 0.10 in2.5 mm
03:15 PM 64.4°F18.0°C 61.1°F16.2°C 89% 3.4 mph WSW5.5 kmh WSW 13.6 mph21.9 kmh 29.47 in998.0 mb 0.06 in1.5 mm 0.00 in0.0 mm 0.10 in2.5 mm
03:30 PM 64.8°F18.2°C 60.8°F16.0°C 87% 2.7 mph W4.3 kmh W 8.9 mph14.3 kmh 29.50 in999.0 mb 0.00 in0.0 mm 0.00 in0.0 mm 0.10 in2.5 mm
03:45 PM 66.4°F19.1°C 62.1°F16.7°C 86% 5.5 mph W8.9 kmh W 11.1 mph17.9 kmh 29.50 in999.0 mb 0.00 in0.0 mm 0.00 in0.0 mm 0.10 in2.5 mm
04:00 PM 66.2°F19.0°C 60.2°F15.7°C 81% 4.4 mph W7.1 kmh W 14.0 mph22.5 kmh 29.50 in999.0 mb 0.00 in0.0 mm 0.00 in0.0 mm 0.10 in2.5 mm
04:15 PM 65.7°F18.7°C 59.7°F15.4°C 81% 3.5 mph W5.6 kmh W 7.9 mph12.7 kmh 29.47 in998.0 mb 0.00 in0.0 mm 0.00 in0.0 mm 0.10 in2.5 mm
04:31 PM 64.9°F18.3°C 58.6°F14.8°C 80% 5.8 mph SW9.3 kmh SW 12.5 mph20.1 kmh 29.50 in999.0 mb 0.00 in0.0 mm 0.00 in0.0 mm 0.10 in2.5 mm
04:45 PM 64.8°F18.2°C 59.1°F15.1°C 82% 6.0 mph WSW9.7 kmh WSW 13.6 mph21.9 kmh 29.50 in999.0 mb 0.00 in0.0 mm 0.00 in0.0 mm 0.10 in2.5 mm
05:00 PM 66.4°F19.1°C 60.7°F15.9°C 82% 5.9 mph SW9.5 kmh SW 15.4 mph24.8 kmh 29.50 in999.0 mb 0.00 in0.0 mm 0.00 in0.0 mm 0.10 in2.5 mm
05:15 PM 66.4°F19.1°C 59.7°F15.4°C 79% 6.7 mph WSW10.8 kmh WSW 16.5 mph26.6 kmh 29.50 in999.0 mb 0.00 in0.0 mm 0.00 in0.0 mm 0.10 in2.5 mm
05:30 PM 65.7°F18.7°C 59.3°F15.2°C 80% 8.1 mph SW13.0 kmh SW 17.2 mph27.7 kmh 29.50 in999.0 mb 0.00 in0.0 mm 0.00 in0.0 mm 0.10 in2.5 mm
05:45 PM 65.1°F18.4°C 59.1°F15.1°C 81% 7.9 mph SW12.7 kmh SW 19.3 mph31.1 kmh 29.50 in999.0 mb 0.00 in0.0 mm 0.00 in0.0 mm 0.10 in2.5 mm
06:00 PM 64.6°F18.1°C 59.0°F15.0°C 82% 6.7 mph WSW10.8 kmh WSW 17.9 mph28.8 kmh 29.50 in999.0 mb 0.00 in0.0 mm 0.00 in0.0 mm 0.10 in2.5 mm
06:15 PM 64.2°F17.9°C 58.9°F14.9°C 83% 7.0 mph WSW11.3 kmh WSW 16.5 mph26.6 kmh 29.50 in999.0 mb 0.00 in0.0 mm 0.00 in0.0 mm 0.10 in2.5 mm
06:30 PM 63.7°F17.6°C 58.4°F14.7°C 83% 6.9 mph WSW11.1 kmh WSW 17.5 mph28.2 kmh 29.47 in998.0 mb 0.00 in0.0 mm 0.00 in0.0 mm 0.10 in2.5 mm
06:45 PM 62.6°F17.0°C 57.4°F14.1°C 83% 7.3 mph W11.7 kmh W 19.3 mph31.1 kmh 29.50 in999.0 mb 0.13 in3.3 mm 0.52 in13.2 mm 0.23 in5.8 mm
07:00 PM 61.7°F16.5°C 57.5°F14.2°C 86% 4.9 mph WSW7.9 kmh WSW 16.5 mph26.6 kmh 29.50 in999.0 mb 0.18 in4.6 mm 0.07 in1.8 mm 0.27 in6.9 mm
07:15 PM 61.3°F16.3°C 58.1°F14.5°C 89% 4.1 mph WNW6.6 kmh WNW 9.7 mph15.6 kmh 29.50 in999.0 mb 0.18 in4.6 mm 0.00 in0.0 mm 0.27 in6.9 mm
07:30 PM 61.2°F16.2°C 58.2°F14.6°C 90% 4.6 mph W7.4 kmh W 10.4 mph16.7 kmh 29.53 in1000.0 mb 0.18 in4.6 mm 0.00 in0.0 mm 0.27 in6.9 mm
07:45 PM 61.0°F16.1°C 58.3°F14.6°C 91% 4.5 mph W7.2 kmh W 9.7 mph15.6 kmh 29.53 in1000.0 mb 0.04 in1.0 mm 0.00 in0.0 mm 0.27 in6.9 mm
08:00 PM 60.8°F16.0°C 58.5°F14.7°C 92% 4.8 mph WSW7.7 kmh WSW 11.5 mph18.5 kmh 29.53 in1000.0 mb 0.00 in0.0 mm 0.00 in0.0 mm 0.27 in6.9 mm
08:15 PM 60.8°F16.0°C 58.8°F14.9°C 93% 7.0 mph WSW11.3 kmh WSW 16.1 mph25.9 kmh 29.50 in999.0 mb 0.00 in0.0 mm 0.00 in0.0 mm 0.27 in6.9 mm
08:30 PM 60.6°F15.9°C 58.6°F14.8°C 93% 6.7 mph W10.8 kmh W 16.1 mph25.9 kmh 29.53 in1000.0 mb 0.00 in0.0 mm 0.00 in0.0 mm 0.27 in6.9 mm
08:45 PM 60.1°F15.6°C 58.0°F14.4°C 93% 9.6 mph W15.4 kmh W 21.1 mph34.0 kmh 29.53 in1000.0 mb 0.00 in0.0 mm 0.00 in0.0 mm 0.27 in6.9 mm
09:00 PM 60.1°F15.6°C 57.7°F14.3°C 92% 6.7 mph W10.8 kmh W 16.8 mph27.0 kmh 29.53 in1000.0 mb 0.00 in0.0 mm 0.00 in0.0 mm 0.27 in6.9 mm
09:15 PM 60.3°F15.7°C 58.2°F14.6°C 93% 6.4 mph WSW10.3 kmh WSW 16.5 mph26.6 kmh 29.53 in1000.0 mb 0.00 in0.0 mm 0.00 in0.0 mm 0.27 in6.9 mm
09:30 PM 60.3°F15.7°C 58.2°F14.6°C 93% 6.2 mph WSW10.0 kmh WSW 17.2 mph27.7 kmh 29.53 in1000.0 mb 0.00 in0.0 mm 0.00 in0.0 mm 0.27 in6.9 mm
09:45 PM 60.3°F15.7°C 58.2°F14.6°C 93% 6.3 mph W10.1 kmh W 20.0 mph32.2 kmh 29.53 in1000.0 mb 0.00 in0.0 mm 0.00 in0.0 mm 0.27 in6.9 mm
10:00 PM 60.3°F15.7°C 58.2°F14.6°C 93% 7.9 mph WSW12.7 kmh WSW 22.2 mph35.7 kmh 29.53 in1000.0 mb 0.00 in0.0 mm 0.00 in0.0 mm 0.27 in6.9 mm
10:15 PM 60.4°F15.8°C 58.1°F14.5°C 92% 7.4 mph WSW11.9 kmh WSW 20.0 mph32.2 kmh 29.53 in1000.0 mb 0.00 in0.0 mm 0.00 in0.0 mm 0.27 in6.9 mm
10:30 PM 60.4°F15.8°C 58.1°F14.5°C 92% 7.9 mph W12.7 kmh W 22.9 mph36.9 kmh 29.53 in1000.0 mb 0.00 in0.0 mm 0.00 in0.0 mm 0.27 in6.9 mm
10:45 PM 60.4°F15.8°C 58.1°F14.5°C 92% 7.0 mph W11.3 kmh W 17.5 mph28.2 kmh 29.53 in1000.0 mb 0.00 in0.0 mm 0.00 in0.0 mm 0.27 in6.9 mm
11:00 PM 60.4°F15.8°C 58.1°F14.5°C 92% 7.6 mph WSW12.2 kmh WSW 16.5 mph26.6 kmh 29.53 in1000.0 mb 0.00 in0.0 mm 0.00 in0.0 mm 0.28 in7.1 mm
11:15 PM 60.4°F15.8°C 57.8°F14.3°C 91% 9.8 mph W15.8 kmh W 21.5 mph34.6 kmh 29.50 in999.0 mb 0.00 in0.0 mm 0.00 in0.0 mm 0.28 in7.1 mm
11:30 PM 60.6°F15.9°C 58.0°F14.4°C 91% 9.7 mph WSW15.6 kmh WSW 22.9 mph36.9 kmh 29.50 in999.0 mb 0.00 in0.0 mm 0.00 in0.0 mm 0.28 in7.1 mm
11:45 PM 60.6°F15.9°C 58.0°F14.4°C 91% 7.3 mph WSW11.7 kmh WSW 20.4 mph32.8 kmh 29.50 in999.0 mb 0.00 in0.0 mm 0.00 in0.0 mm 0.28 in7.1 mm